KELY

Details ICAO KELY (ELY)
Name Ely Arpt Yelland Fld
Region United States
Timezone America/Los_Angeles (UTC-7.0)
Plans Departing 7
Arriving 9
Stats Elevation 6,259 ft / 1,908 m (AMSL)
Location 39.299585° -114.842354°
Runways 2
Magnetic Variation 12.099° E
Sunrise 2018-05-20 12:23:05 UTC / 2018-05-20 05:23:05 Local
Sunset 2018-05-21 02:51:36 UTC / 2018-05-20 19:51:36 Local
Advertisement - Login to hide

Runways

ID Width Length Bearing (true) Bearing (mag) Surface Threshold Offset Overrun Length
12 59 ft / 18 m 4,819 ft / 1,469 m 140.73° 128.63° Asphalt 0 ft / 0 m 0 ft / 0 m
18 151 ft / 46 m 6,024 ft / 1,836 m 193.76° 181.66° Asphalt 0 ft / 0 m 200 ft / 61 m
30 59 ft / 18 m 4,819 ft / 1,469 m 320.73° 308.63° Asphalt 0 ft / 0 m 0 ft / 0 m
36 151 ft / 46 m 6,024 ft / 1,836 m 13.76° 1.66° Asphalt 0 ft / 0 m 200 ft / 61 m

Map

Weather


0- 5 10 15 20 25 30 35+ Temperature / ° C

Clouds and Precipitation
Forecast for 2018-05-20 18:00 UTC. Updated an hour ago

Ground ~20,000 ft ~40,000 ft Winds

METAR

KELY 201553Z AUTO VRB03KT 10SM CLR 14/04 A3004 RMK AO2 SLP108 T01440044

TAF

TAF KELY 201120Z 2012/2112 17008KT P6SM FEW120 SCT200 FM201900 18010G20KT P6SM VCTS SCT060CB BKN080 FM210300 17010KT P6SM VCSH SCT040 BKN060

Frequencies

Recorded 120.62 MHz ASOS
Unicom 122.80 MHz CTAF/UNICOM
Warning: Do not use this data for real-world aviation or navigation. No guarantee of current accuracy is given.